createdAt,value
2018-09-26T00:00:50.642Z,3.63
2018-09-26T00:03:35.991Z,4.03
2018-09-26T00:06:13.289Z,4.00
2018-09-26T00:08:51.397Z,4.40
2018-09-26T00:11:29.870Z,3.73
2018-09-26T00:14:09.829Z,4.27
2018-09-26T00:16:46.593Z,4.43
2018-09-26T00:19:24.774Z,4.30
2018-09-26T00:22:01.057Z,3.90
2018-09-26T00:24:38.330Z,4.27
2018-09-26T00:27:15.148Z,3.97
2018-09-26T00:29:44.711Z,4.17
2018-09-26T00:32:14.278Z,4.00
2018-09-26T00:34:43.971Z,4.50
2018-09-26T00:37:13.523Z,4.20
2018-09-26T00:39:43.130Z,4.80
2018-09-26T00:42:12.706Z,4.90
2018-09-26T00:44:42.941Z,5.23
2018-09-26T00:47:12.566Z,4.10
2018-09-26T00:49:42.182Z,4.67
2018-09-26T00:52:12.809Z,4.10
2018-09-26T00:54:42.475Z,5.03
2018-09-26T00:57:12.089Z,5.10
2018-09-26T00:59:42.762Z,5.20
2018-09-26T01:02:12.325Z,4.80
2018-09-26T01:04:41.942Z,5.03
2018-09-26T01:07:11.585Z,5.20
2018-09-26T01:09:41.123Z,5.10
2018-09-26T01:12:10.784Z,5.30
2018-09-26T01:14:40.405Z,5.43
2018-09-26T01:17:10.114Z,5.33
2018-09-26T01:19:39.699Z,6.00
2018-09-26T01:22:09.413Z,5.12
2018-09-26T01:24:39.066Z,5.43
2018-09-26T01:27:09.214Z,5.53
2018-09-26T01:29:39.952Z,5.78
2018-09-26T01:32:09.517Z,5.67
2018-09-26T01:34:39.123Z,6.10
2018-09-26T01:37:08.762Z,6.23
2018-09-26T01:39:38.341Z,6.00
2018-09-26T01:42:07.990Z,5.63
2018-09-26T01:44:37.605Z,6.33
2018-09-26T01:47:07.422Z,6.20
2018-09-26T01:49:37.016Z,6.53
2018-09-26T01:52:06.655Z,6.23
2018-09-26T01:54:36.601Z,6.33
2018-09-26T01:57:06.920Z,6.10
2018-09-26T01:59:36.548Z,6.72
2018-09-26T02:02:06.732Z,7.15
2018-09-26T02:04:36.496Z,7.30
2018-09-26T02:07:06.460Z,6.95
2018-09-26T02:09:44.424Z,7.70
2018-09-26T02:12:14.640Z,7.50
2018-09-26T02:14:44.241Z,7.33
2018-09-26T02:17:13.810Z,7.00
2018-09-26T02:19:43.404Z,7.50
2018-09-26T02:22:13.021Z,7.67
2018-09-26T02:24:42.593Z,8.63
2018-09-26T02:27:12.185Z,8.60
2018-09-26T02:29:41.893Z,8.43
2018-09-26T02:32:11.509Z,9.40
2018-09-26T02:34:41.091Z,9.00
2018-09-26T02:37:10.662Z,9.40
2018-09-26T02:39:40.931Z,9.07
2018-09-26T02:42:10.608Z,9.33
2018-09-26T02:44:40.158Z,9.80
2018-09-26T02:47:11.542Z,9.47
2018-09-26T02:49:41.148Z,10.80
2018-09-26T02:52:10.717Z,9.85
2018-09-26T02:54:40.268Z,10.03
2018-09-26T02:57:09.930Z,10.97
2018-09-26T02:59:39.507Z,11.60
2018-09-26T03:02:09.168Z,11.27
2018-09-26T03:04:38.712Z,11.27
2018-09-26T03:07:08.597Z,11.87
2018-09-26T03:09:38.211Z,11.73
2018-09-26T03:12:07.777Z,12.47
2018-09-26T03:14:37.665Z,11.87
2018-09-26T03:17:07.502Z,12.53
2018-09-26T03:19:37.359Z,12.47
2018-09-26T03:22:06.955Z,12.90
2018-09-26T03:24:36.517Z,12.78
2018-09-26T03:27:06.281Z,13.37
2018-09-26T03:29:35.847Z,13.03
2018-09-26T03:32:06.262Z,12.40
2018-09-26T03:34:35.954Z,14.90
2018-09-26T03:37:06.778Z,14.07
2018-09-26T03:39:36.422Z,14.27
2018-09-26T03:42:06.669Z,15.60
2018-09-26T03:44:36.296Z,16.27
2018-09-26T03:47:06.613Z,16.03
2018-09-26T03:49:36.229Z,15.63
2018-09-26T03:52:06.840Z,14.83
2018-09-26T03:54:36.915Z,15.70
2018-09-26T03:57:06.736Z,15.77
2018-09-26T03:59:36.338Z,16.27
2018-09-26T04:02:07.156Z,16.20
2018-09-26T04:04:36.733Z,16.00
2018-09-26T04:07:06.737Z,16.50
2018-09-26T04:09:36.288Z,16.43
2018-09-26T04:12:06.637Z,17.23
2018-09-26T04:14:36.198Z,17.00
2018-09-26T04:17:06.303Z,17.45
2018-09-26T04:19:36.371Z,17.30
2018-09-26T04:22:06.493Z,17.93
2018-09-26T04:24:36.150Z,17.67
2018-09-26T04:27:06.740Z,16.42
2018-09-26T04:29:37.475Z,17.67
2018-09-26T04:32:07.466Z,18.03
2018-09-26T04:34:37.042Z,17.57
2018-09-26T04:37:06.909Z,16.87
2018-09-26T04:39:36.840Z,17.90
2018-09-26T04:42:06.778Z,17.20
2018-09-26T04:44:36.390Z,17.20
2018-09-26T04:47:06.351Z,16.93
2018-09-26T04:49:36.080Z,16.53
2018-09-26T04:52:06.625Z,16.02
2018-09-26T04:54:36.399Z,16.40
2018-09-26T04:57:06.759Z,16.07
2018-09-26T04:59:36.497Z,16.20
2018-09-26T05:02:06.649Z,14.95
2018-09-26T05:04:36.317Z,14.50
2018-09-26T05:07:07.222Z,14.83
2018-09-26T05:09:37.217Z,14.70
2018-09-26T05:12:07.098Z,14.37
2018-09-26T05:14:36.814Z,14.70
2018-09-26T05:17:06.475Z,14.70
2018-09-26T05:19:36.163Z,14.70
2018-09-26T05:22:06.621Z,15.50
2018-09-26T05:24:36.563Z,14.93
2018-09-26T05:27:06.670Z,16.10
2018-09-26T05:29:36.318Z,14.93
2018-09-26T05:32:07.065Z,14.58
2018-09-26T05:34:36.944Z,15.40
2018-09-26T05:37:06.630Z,15.60
2018-09-26T05:39:36.304Z,14.80
2018-09-26T05:42:06.353Z,16.02
2018-09-26T05:44:36.077Z,15.23
2018-09-26T05:47:13.275Z,15.80
2018-09-26T05:49:48.751Z,15.60
2018-09-26T05:52:18.392Z,15.10
2018-09-26T05:54:47.962Z,15.47
2018-09-26T05:57:17.546Z,16.43
2018-09-26T05:59:47.266Z,16.73
2018-09-26T06:02:16.941Z,17.70
2018-09-26T06:04:46.582Z,17.23
2018-09-26T06:07:16.306Z,17.00
2018-09-26T06:09:46.049Z,19.17
2018-09-26T06:12:15.760Z,16.47
2018-09-26T06:14:50.584Z,17.40
2018-09-26T06:17:28.695Z,17.07
2018-09-26T06:19:58.476Z,16.73
2018-09-26T06:22:28.240Z,17.17
2018-09-26T06:25:03.169Z,18.50
2018-09-26T06:27:32.918Z,17.70
2018-09-26T06:30:02.850Z,18.43
2018-09-26T06:32:32.716Z,20.40
2018-09-26T06:35:02.947Z,18.23
2018-09-26T06:37:35.160Z,19.20
2018-09-26T06:40:22.099Z,17.13
2018-09-26T06:42:51.833Z,18.53
2018-09-26T06:45:21.530Z,18.00
2018-09-26T06:47:51.220Z,17.70
2018-09-26T06:50:20.881Z,17.62
2018-09-26T06:52:50.606Z,17.77
2018-09-26T06:55:21.841Z,16.80
2018-09-26T06:57:53.859Z,17.30
2018-09-26T07:00:23.570Z,16.53
2018-09-26T07:02:53.178Z,16.57
2018-09-26T07:05:22.917Z,16.60
2018-09-26T07:07:52.569Z,15.93
2018-09-26T07:10:22.231Z,15.60
2018-09-26T07:12:51.918Z,16.47
2018-09-26T07:15:21.599Z,15.43
2018-09-26T07:17:51.460Z,14.93
2018-09-26T07:20:22.012Z,15.93
2018-09-26T07:22:52.103Z,15.70
2018-09-26T07:25:21.911Z,15.37
2018-09-26T07:27:51.561Z,14.67
2018-09-26T07:30:21.276Z,14.37
2018-09-26T07:32:50.963Z,15.23
2018-09-26T07:35:20.830Z,16.10
2018-09-26T07:37:50.445Z,15.13
2018-09-26T07:40:20.173Z,15.03
2018-09-26T07:42:49.957Z,15.03
2018-09-26T07:45:19.581Z,13.65
2018-09-26T07:47:49.358Z,14.90
2018-09-26T07:50:20.178Z,15.13
2018-09-26T07:52:54.081Z,15.00
2018-09-26T07:55:23.958Z,14.70
2018-09-26T07:57:53.612Z,15.37
2018-09-26T08:00:23.255Z,14.90
2018-09-26T08:02:52.903Z,15.60
2018-09-26T08:05:22.672Z,14.40
2018-09-26T08:07:52.411Z,14.80
2018-09-26T08:10:22.170Z,15.33
2018-09-26T08:12:51.981Z,14.03
2018-09-26T08:15:22.836Z,14.65
2018-09-26T08:17:52.538Z,14.17
2018-09-26T08:20:22.282Z,14.80
2018-09-26T08:22:52.135Z,14.17
2018-09-26T08:25:21.937Z,13.03
2018-09-26T08:27:51.529Z,13.27
2018-09-26T08:30:21.290Z,12.60
2018-09-26T08:32:51.086Z,12.30
2018-09-26T08:35:22.280Z,13.03
2018-09-26T08:37:51.967Z,11.47
2018-09-26T08:40:21.762Z,11.73
2018-09-26T08:42:52.217Z,10.77
2018-09-26T08:45:22.357Z,10.63
2018-09-26T08:47:51.947Z,11.17
2018-09-26T08:50:21.644Z,10.23
2018-09-26T08:52:51.344Z,10.90
2018-09-26T08:55:21.181Z,10.50
2018-09-26T08:57:50.880Z,10.17
2018-09-26T09:00:25.539Z,10.50
2018-09-26T09:02:55.986Z,11.33
2018-09-26T09:05:26.445Z,10.77
2018-09-26T09:08:00.201Z,11.33
2018-09-26T09:10:30.187Z,11.20
2018-09-26T09:13:11.087Z,10.47
2018-09-26T09:15:56.784Z,10.57
2018-09-26T09:18:26.672Z,10.57
2018-09-26T09:20:56.312Z,10.67
2018-09-26T09:23:31.214Z,10.40
2018-09-26T09:26:09.567Z,11.23
2018-09-26T09:28:48.227Z,10.70
2018-09-26T09:31:17.941Z,11.00
2018-09-26T09:33:49.121Z,10.60
2018-09-26T09:36:18.833Z,11.80
2018-09-26T09:38:48.561Z,11.07
2018-09-26T09:41:20.482Z,10.82
2018-09-26T09:44:16.063Z,11.57
2018-09-26T09:46:46.237Z,11.23
2018-09-26T09:49:15.892Z,10.48
2018-09-26T09:51:45.612Z,11.00
2018-09-26T09:54:15.355Z,11.00
2018-09-26T09:56:45.028Z,11.53
2018-09-26T09:59:18.560Z,11.87
2018-09-26T10:01:48.301Z,11.80
2018-09-26T10:04:18.000Z,11.90
2018-09-26T10:06:47.709Z,11.70
2018-09-26T10:09:17.315Z,11.10
2018-09-26T10:11:46.929Z,11.30
2018-09-26T10:14:16.683Z,11.88
2018-09-26T10:16:46.441Z,11.60
2018-09-26T10:19:16.080Z,11.80
2018-09-26T10:21:45.730Z,12.43
2018-09-26T10:24:15.631Z,11.50
2018-09-26T10:26:53.049Z,11.93
2018-09-26T10:29:23.217Z,10.50
2018-09-26T10:31:52.975Z,10.83
2018-09-26T10:34:22.918Z,10.68
2018-09-26T10:36:52.597Z,9.67
2018-09-26T10:39:22.330Z,9.70
2018-09-26T10:41:51.996Z,8.77
2018-09-26T10:44:21.706Z,8.33
2018-09-26T10:46:51.347Z,8.80
2018-09-26T10:49:21.978Z,8.53
2018-09-26T10:51:53.041Z,9.17
2018-09-26T10:54:22.781Z,8.07
2018-09-26T10:56:52.534Z,8.47
2018-09-26T10:59:22.134Z,7.85
2018-09-26T11:01:51.921Z,8.65
2018-09-26T11:04:21.620Z,8.10
2018-09-26T11:06:51.387Z,8.80
2018-09-26T11:09:21.026Z,8.15
2018-09-26T11:11:50.671Z,8.60
2018-09-26T11:14:20.738Z,8.63
2018-09-26T11:16:53.328Z,9.50
2018-09-26T11:19:23.300Z,8.63
2018-09-26T11:21:53.241Z,8.77
2018-09-26T11:24:23.040Z,8.50
2018-09-26T11:26:52.649Z,8.00
2018-09-26T11:29:22.301Z,7.50
2018-09-26T11:31:51.974Z,7.03
2018-09-26T11:34:21.616Z,6.40
2018-09-26T11:36:51.165Z,7.43
2018-09-26T11:39:20.807Z,8.60
2018-09-26T11:41:50.630Z,7.45
2018-09-26T11:44:20.564Z,7.07
2018-09-26T11:46:50.181Z,6.77
2018-09-26T11:49:19.802Z,7.83
2018-09-26T11:51:49.575Z,7.83
2018-09-26T11:54:19.238Z,7.47
2018-09-26T11:56:48.966Z,7.13
2018-09-26T11:59:18.573Z,7.37
2018-09-26T12:01:47.883Z,8.67
2018-09-26T12:04:17.537Z,8.00
2018-09-26T12:06:47.108Z,8.77
2018-09-26T12:09:16.754Z,7.90
2018-09-26T12:11:46.775Z,9.00
2018-09-26T12:14:16.878Z,8.10
2018-09-26T12:16:47.180Z,8.73
2018-09-26T12:19:17.093Z,8.85
2018-09-26T12:21:46.687Z,8.80
2018-09-26T12:24:16.291Z,8.00
2018-09-26T12:26:45.952Z,8.67
2018-09-26T12:29:15.768Z,7.55
2018-09-26T12:31:45.419Z,8.30
2018-09-26T12:34:15.182Z,8.28
2018-09-26T12:36:44.734Z,7.97
2018-09-26T12:39:14.415Z,8.60
2018-09-26T12:41:47.077Z,7.33
2018-09-26T12:44:16.777Z,7.58
2018-09-26T12:46:46.532Z,8.27
2018-09-26T12:49:16.175Z,6.27
2018-09-26T12:51:45.849Z,6.00
2018-09-26T12:54:15.466Z,6.10
2018-09-26T12:56:45.130Z,5.30
2018-09-26T12:59:15.108Z,5.70
2018-09-26T13:01:44.934Z,5.70
2018-09-26T13:04:14.659Z,5.03
2018-09-26T13:06:44.323Z,5.33
2018-09-26T13:09:14.084Z,5.78
2018-09-26T13:11:43.705Z,6.10
2018-09-26T13:14:13.453Z,6.03
2018-09-26T13:16:43.238Z,5.50
2018-09-26T13:19:12.860Z,6.15
2018-09-26T13:21:42.626Z,5.07
2018-09-26T13:24:12.345Z,5.50
2018-09-26T13:26:41.887Z,4.63
2018-09-26T13:29:11.485Z,4.85
2018-09-26T13:31:41.088Z,4.43
2018-09-26T13:34:10.719Z,4.80
2018-09-26T13:36:41.803Z,4.90
2018-09-26T13:39:11.520Z,4.78
2018-09-26T13:41:41.242Z,4.30
2018-09-26T13:44:11.019Z,4.47
2018-09-26T13:46:40.692Z,4.10
2018-09-26T13:49:10.230Z,3.87
2018-09-26T13:51:39.994Z,4.07
2018-09-26T13:54:09.711Z,4.13
2018-09-26T13:56:39.382Z,3.57
2018-09-26T13:59:09.039Z,3.50
2018-09-26T14:01:39.049Z,3.53
2018-09-26T14:04:09.314Z,4.03
2018-09-26T14:06:39.117Z,3.43
2018-09-26T14:09:08.905Z,3.65
2018-09-26T14:11:38.555Z,3.50
2018-09-26T14:14:08.307Z,3.50
2018-09-26T14:16:37.913Z,3.13
2018-09-26T14:19:07.545Z,3.50
2018-09-26T14:21:39.395Z,3.00
2018-09-26T14:24:09.099Z,3.87
2018-09-26T14:26:39.381Z,3.13
2018-09-26T14:29:12.373Z,2.80
2018-09-26T14:31:42.107Z,3.03
2018-09-26T14:34:12.064Z,3.12
2018-09-26T14:36:41.824Z,2.70
2018-09-26T14:39:12.141Z,2.70
2018-09-26T14:41:41.784Z,2.80
2018-09-26T14:44:11.463Z,2.60
2018-09-26T14:46:41.263Z,2.70
2018-09-26T14:49:11.191Z,2.42
2018-09-26T14:51:41.383Z,2.57
2018-09-26T14:54:11.063Z,2.50
2018-09-26T14:56:41.007Z,2.60
2018-09-26T14:59:10.686Z,2.50
2018-09-26T15:01:40.457Z,2.73
2018-09-26T15:04:10.458Z,2.90
2018-09-26T15:06:40.133Z,2.40
2018-09-26T15:09:09.921Z,2.60
2018-09-26T15:11:40.894Z,2.37
2018-09-26T15:14:10.699Z,2.52
2018-09-26T15:16:40.576Z,2.50
2018-09-26T15:19:10.669Z,2.50
2018-09-26T15:21:41.789Z,2.93
2018-09-26T15:24:11.687Z,2.70
2018-09-26T15:26:41.513Z,2.43
2018-09-26T15:29:11.165Z,2.77
2018-09-26T15:31:40.983Z,2.70
2018-09-26T15:34:10.781Z,2.00
2018-09-26T15:36:41.152Z,2.60
2018-09-26T15:39:12.357Z,2.70
2018-09-26T15:41:42.332Z,2.13
2018-09-26T15:44:12.897Z,2.13
2018-09-26T15:46:42.633Z,1.90
2018-09-26T15:49:12.312Z,2.37
2018-09-26T15:51:42.103Z,2.20
2018-09-26T15:54:11.899Z,2.60
2018-09-26T15:56:41.645Z,2.07
2018-09-26T15:59:11.944Z,2.50
2018-09-26T16:01:41.666Z,2.30
2018-09-26T16:04:11.340Z,2.42
2018-09-26T16:06:42.228Z,2.07
2018-09-26T16:09:12.558Z,2.40
2018-09-26T16:11:42.370Z,2.30
2018-09-26T16:14:12.135Z,2.80
2018-09-26T16:16:42.403Z,2.47
2018-09-26T16:19:12.120Z,2.30
2018-09-26T16:21:43.144Z,2.47
2018-09-26T16:24:12.837Z,2.40
2018-09-26T16:26:42.515Z,3.03
2018-09-26T16:29:12.090Z,2.80
2018-09-26T16:31:41.744Z,2.30
2018-09-26T16:34:13.194Z,2.27
2018-09-26T16:36:42.862Z,2.30
2018-09-26T16:39:14.167Z,2.40
2018-09-26T16:41:44.753Z,2.33
2018-09-26T16:44:14.914Z,2.27
2018-09-26T16:46:44.549Z,1.80
2018-09-26T16:49:14.298Z,2.22
2018-09-26T16:51:44.031Z,2.17
2018-09-26T16:54:13.792Z,2.00
2018-09-26T16:56:43.508Z,1.92
2018-09-26T16:59:14.824Z,2.00
2018-09-26T17:01:44.477Z,2.10
2018-09-26T17:04:14.169Z,2.33
2018-09-26T17:06:43.862Z,1.80
2018-09-26T17:09:13.472Z,2.20
2018-09-26T17:11:43.139Z,1.93
2018-09-26T17:14:12.898Z,2.02
2018-09-26T17:16:42.626Z,2.40
2018-09-26T17:19:12.538Z,2.77
2018-09-26T17:21:42.168Z,2.57
2018-09-26T17:24:11.930Z,2.10
2018-09-26T17:26:42.940Z,2.20
2018-09-26T17:29:12.607Z,2.40
2018-09-26T17:31:42.278Z,2.43
2018-09-26T17:34:11.994Z,2.37
2018-09-26T17:36:41.597Z,2.10
2018-09-26T17:39:11.553Z,2.30
2018-09-26T17:41:41.202Z,2.40
2018-09-26T17:44:10.994Z,3.00
2018-09-26T17:46:40.767Z,2.20
2018-09-26T17:49:10.484Z,2.97
2018-09-26T17:51:40.186Z,3.50
2018-09-26T17:54:10.971Z,2.63
2018-09-26T17:56:40.611Z,2.85
2018-09-26T17:59:11.038Z,2.70
2018-09-26T18:01:40.798Z,2.50
2018-09-26T18:04:10.600Z,2.90
2018-09-26T18:06:40.155Z,3.33
2018-09-26T18:09:11.816Z,2.67
2018-09-26T18:11:41.538Z,2.80
2018-09-26T18:14:11.170Z,3.00
2018-09-26T18:16:40.850Z,3.23
2018-09-26T18:19:10.564Z,2.50
2018-09-26T18:21:44.456Z,2.87
2018-09-26T18:24:14.237Z,3.13
2018-09-26T18:26:43.891Z,3.20
2018-09-26T18:29:13.505Z,3.40
2018-09-26T18:31:43.185Z,3.27
2018-09-26T18:34:12.859Z,3.40
2018-09-26T18:36:42.587Z,3.30
2018-09-26T18:39:12.570Z,3.37
2018-09-26T18:41:42.251Z,3.03
2018-09-26T18:44:11.849Z,3.90
2018-09-26T18:46:41.513Z,4.10
2018-09-26T18:49:12.348Z,3.27
2018-09-26T18:51:43.055Z,3.00
2018-09-26T18:54:12.681Z,3.20
2018-09-26T18:56:42.306Z,3.10
2018-09-26T18:59:11.864Z,3.12
2018-09-26T19:01:41.457Z,3.00
2018-09-26T19:04:11.337Z,3.10
2018-09-26T19:06:41.105Z,3.00
2018-09-26T19:09:11.543Z,2.90
2018-09-26T19:11:41.279Z,3.23
2018-09-26T19:14:10.957Z,3.34
2018-09-26T19:16:40.591Z,3.30
2018-09-26T19:19:10.285Z,3.00
2018-09-26T19:21:41.740Z,3.00
2018-09-26T19:24:11.392Z,3.43
2018-09-26T19:26:41.047Z,2.57
2018-09-26T19:29:10.755Z,3.08
2018-09-26T19:31:40.599Z,3.43
2018-09-26T19:34:10.266Z,2.77
2018-09-26T19:36:39.939Z,2.87
2018-09-26T19:39:11.021Z,3.20
2018-09-26T19:41:40.828Z,2.73
2018-09-26T19:44:12.352Z,3.10
2018-09-26T19:46:43.059Z,2.83
2018-09-26T19:49:12.733Z,2.72
2018-09-26T19:51:42.450Z,2.83
2018-09-26T19:54:12.124Z,2.63
2018-09-26T19:56:41.799Z,2.57
2018-09-26T19:59:11.439Z,2.20
2018-09-26T20:01:41.057Z,2.40
2018-09-26T20:04:10.891Z,4.35
2018-09-26T20:06:40.583Z,2.70
2018-09-26T20:09:12.051Z,2.70
2018-09-26T20:11:42.179Z,2.23
2018-09-26T20:14:13.100Z,2.83
2018-09-26T20:16:42.800Z,2.43
2018-09-26T20:19:12.560Z,2.72
2018-09-26T20:21:42.201Z,2.30
2018-09-26T20:24:11.895Z,2.77
2018-09-26T20:26:41.634Z,2.67
2018-09-26T20:29:11.268Z,2.98
2018-09-26T20:31:40.875Z,2.93
2018-09-26T20:34:10.560Z,2.83
2018-09-26T20:36:40.229Z,2.73
2018-09-26T20:39:11.760Z,2.60
2018-09-26T20:41:41.550Z,2.33
2018-09-26T20:44:11.182Z,2.60
2018-09-26T20:46:40.779Z,2.60
2018-09-26T20:49:10.641Z,2.90
2018-09-26T20:51:41.360Z,2.47
2018-09-26T20:54:10.993Z,2.95
2018-09-26T20:56:40.629Z,2.50
2018-09-26T20:59:10.264Z,3.00
2018-09-26T21:01:39.817Z,2.90
2018-09-26T21:04:09.490Z,2.40
2018-09-26T21:06:39.151Z,3.00
2018-09-26T21:09:18.160Z,3.53
2018-09-26T21:11:47.864Z,3.53
2018-09-26T21:14:17.612Z,3.27
2018-09-26T21:16:47.329Z,3.10
2018-09-26T21:19:16.954Z,3.30
2018-09-26T21:21:46.617Z,3.27
2018-09-26T21:24:16.262Z,2.90
2018-09-26T21:26:45.889Z,3.40
2018-09-26T21:29:15.543Z,3.22
2018-09-26T21:31:45.427Z,3.20
2018-09-26T21:34:15.667Z,3.33
2018-09-26T21:36:45.362Z,4.00
2018-09-26T21:39:14.959Z,3.90
2018-09-26T21:41:44.838Z,3.17
2018-09-26T21:44:14.454Z,3.80
2018-09-26T21:46:44.111Z,3.37
2018-09-26T21:49:13.675Z,3.62
2018-09-26T21:51:43.230Z,3.50
2018-09-26T21:54:12.854Z,4.12
2018-09-26T21:56:42.477Z,3.53
2018-09-26T21:59:12.079Z,3.93
2018-09-26T22:01:41.746Z,3.90
2018-09-26T22:04:12.556Z,3.72
2018-09-26T22:06:42.131Z,4.47
2018-09-26T22:09:11.810Z,4.15
2018-09-26T22:11:44.696Z,4.30
2018-09-26T22:14:14.226Z,4.20
2018-09-26T22:16:43.805Z,4.67
2018-09-26T22:19:13.446Z,4.55
2018-09-26T22:21:43.074Z,5.10
2018-09-26T22:24:12.658Z,4.62
2018-09-26T22:26:42.239Z,4.87
2018-09-26T22:29:11.906Z,4.90
2018-09-26T22:31:41.577Z,5.58
2018-09-26T22:34:11.134Z,5.37
2018-09-26T22:36:40.725Z,5.33
2018-09-26T22:39:11.150Z,5.43
2018-09-26T22:41:40.844Z,6.70
2018-09-26T22:44:10.572Z,6.50
2018-09-26T22:46:40.140Z,6.90
2018-09-26T22:49:09.709Z,6.17
2018-09-26T22:51:39.353Z,7.12
2018-09-26T22:54:08.989Z,7.50
2018-09-26T22:56:38.731Z,7.27
2018-09-26T22:59:08.402Z,7.50
2018-09-26T23:01:37.948Z,8.70
2018-09-26T23:04:07.850Z,8.50
2018-09-26T23:06:46.046Z,8.47
2018-09-26T23:09:24.596Z,8.73
2018-09-26T23:12:02.134Z,9.00
2018-09-26T23:14:39.577Z,8.87
2018-09-26T23:17:16.626Z,9.00
2018-09-26T23:19:52.750Z,9.23
2018-09-26T23:22:30.806Z,8.98
2018-09-26T23:25:05.620Z,9.87
2018-09-26T23:27:42.835Z,9.67
2018-09-26T23:30:18.803Z,10.90
2018-09-26T23:32:55.553Z,8.90
2018-09-26T23:35:31.565Z,8.83
2018-09-26T23:38:08.428Z,8.07
2018-09-26T23:40:46.159Z,8.10
2018-09-26T23:43:24.079Z,8.80
2018-09-26T23:46:01.886Z,8.80
2018-09-26T23:48:38.950Z,8.40
2018-09-26T23:51:15.431Z,8.13
2018-09-26T23:53:53.233Z,8.83
2018-09-26T23:56:30.340Z,8.35
2018-09-26T23:59:07.785Z,8.73
